sensor_id;sensor_type;location;lat;lon;timestamp;P1;durP1;ratioP1;P2;durP2;ratioP2
81106;SDS011;70588;53.172;8.620;2023-08-07T00:01:28;2.00;;;1.45;;
81106;SDS011;70588;53.172;8.620;2023-08-07T00:03:53;3.10;;;1.30;;
81106;SDS011;70588;53.172;8.620;2023-08-07T00:06:19;2.47;;;1.55;;
81106;SDS011;70588;53.172;8.620;2023-08-07T00:08:44;3.70;;;1.70;;
81106;SDS011;70588;53.172;8.620;2023-08-07T00:11:10;2.90;;;1.77;;
81106;SDS011;70588;53.172;8.620;2023-08-07T00:13:36;3.38;;;1.98;;
81106;SDS011;70588;53.172;8.620;2023-08-07T00:16:01;3.90;;;2.00;;
81106;SDS011;70588;53.172;8.620;2023-08-07T00:18:28;2.60;;;1.85;;
81106;SDS011;70588;53.172;8.620;2023-08-07T00:20:54;4.95;;;1.70;;
81106;SDS011;70588;53.172;8.620;2023-08-07T00:23:20;2.78;;;1.70;;
81106;SDS011;70588;53.172;8.620;2023-08-07T00:25:45;3.17;;;1.85;;
81106;SDS011;70588;53.172;8.620;2023-08-07T00:28:10;3.53;;;1.90;;
81106;SDS011;70588;53.172;8.620;2023-08-07T00:30:36;1.90;;;1.63;;
81106;SDS011;70588;53.172;8.620;2023-08-07T00:33:01;3.60;;;2.20;;
81106;SDS011;70588;53.172;8.620;2023-08-07T00:35:27;2.80;;;1.80;;
81106;SDS011;70588;53.172;8.620;2023-08-07T00:37:53;1.77;;;1.45;;
81106;SDS011;70588;53.172;8.620;2023-08-07T00:40:18;3.00;;;2.43;;
81106;SDS011;70588;53.172;8.620;2023-08-07T00:42:44;2.80;;;1.98;;
81106;SDS011;70588;53.172;8.620;2023-08-07T00:45:09;3.88;;;2.03;;
81106;SDS011;70588;53.172;8.620;2023-08-07T00:47:35;4.82;;;2.45;;
81106;SDS011;70588;53.172;8.620;2023-08-07T00:50:02;1.73;;;1.58;;
81106;SDS011;70588;53.172;8.620;2023-08-07T00:52:29;5.35;;;2.35;;
81106;SDS011;70588;53.172;8.620;2023-08-07T00:54:55;4.15;;;2.42;;
81106;SDS011;70588;53.172;8.620;2023-08-07T00:57:21;3.17;;;1.63;;
81106;SDS011;70588;53.172;8.620;2023-08-07T00:59:48;3.53;;;2.08;;
81106;SDS011;70588;53.172;8.620;2023-08-07T01:02:14;3.75;;;1.70;;
81106;SDS011;70588;53.172;8.620;2023-08-07T01:04:40;3.42;;;2.25;;
81106;SDS011;70588;53.172;8.620;2023-08-07T01:07:05;2.20;;;1.90;;
81106;SDS011;70588;53.172;8.620;2023-08-07T01:09:31;2.63;;;1.90;;
81106;SDS011;70588;53.172;8.620;2023-08-07T01:14:34;5.85;;;2.55;;
81106;SDS011;70588;53.172;8.620;2023-08-07T01:17:16;3.85;;;2.22;;
81106;SDS011;70588;53.172;8.620;2023-08-07T01:19:42;4.68;;;2.20;;
81106;SDS011;70588;53.172;8.620;2023-08-07T01:22:11;2.92;;;2.15;;
81106;SDS011;70588;53.172;8.620;2023-08-07T01:24:39;3.17;;;2.30;;
81106;SDS011;70588;53.172;8.620;2023-08-07T01:35:01;3.95;;;2.50;;
81106;SDS011;70588;53.172;8.620;2023-08-07T01:37:29;2.85;;;1.90;;
81106;SDS011;70588;53.172;8.620;2023-08-07T01:39:57;4.88;;;2.67;;
81106;SDS011;70588;53.172;8.620;2023-08-07T01:42:25;2.83;;;2.08;;
81106;SDS011;70588;53.172;8.620;2023-08-07T01:44:51;3.13;;;2.53;;
81106;SDS011;70588;53.172;8.620;2023-08-07T01:47:17;5.65;;;2.45;;
81106;SDS011;70588;53.172;8.620;2023-08-07T01:49:43;3.75;;;2.20;;
81106;SDS011;70588;53.172;8.620;2023-08-07T01:52:08;2.90;;;2.00;;
81106;SDS011;70588;53.172;8.620;2023-08-07T01:54:34;5.97;;;2.60;;
81106;SDS011;70588;53.172;8.620;2023-08-07T01:56:59;3.08;;;2.58;;
81106;SDS011;70588;53.172;8.620;2023-08-07T01:59:24;4.50;;;2.40;;
81106;SDS011;70588;53.172;8.620;2023-08-07T02:01:50;5.90;;;2.50;;
81106;SDS011;70588;53.172;8.620;2023-08-07T02:04:15;3.33;;;2.03;;
81106;SDS011;70588;53.172;8.620;2023-08-07T02:06:41;3.15;;;2.03;;
81106;SDS011;70588;53.172;8.620;2023-08-07T02:09:06;2.88;;;2.30;;
81106;SDS011;70588;53.172;8.620;2023-08-07T02:11:31;2.85;;;2.17;;
81106;SDS011;70588;53.172;8.620;2023-08-07T02:13:57;3.45;;;2.20;;
81106;SDS011;70588;53.172;8.620;2023-08-07T02:16:22;2.57;;;1.60;;
81106;SDS011;70588;53.172;8.620;2023-08-07T02:18:47;3.13;;;1.73;;
81106;SDS011;70588;53.172;8.620;2023-08-07T02:21:13;3.75;;;2.45;;
81106;SDS011;70588;53.172;8.620;2023-08-07T02:23:38;3.97;;;2.03;;
81106;SDS011;70588;53.172;8.620;2023-08-07T02:26:04;5.72;;;2.00;;
81106;SDS011;70588;53.172;8.620;2023-08-07T02:28:29;3.78;;;2.05;;
81106;SDS011;70588;53.172;8.620;2023-08-07T02:30:54;3.95;;;2.35;;
81106;SDS011;70588;53.172;8.620;2023-08-07T02:33:20;4.45;;;2.45;;
81106;SDS011;70588;53.172;8.620;2023-08-07T02:35:45;5.55;;;2.20;;
81106;SDS011;70588;53.172;8.620;2023-08-07T02:38:11;2.00;;;1.75;;
81106;SDS011;70588;53.172;8.620;2023-08-07T02:40:37;2.53;;;2.00;;
81106;SDS011;70588;53.172;8.620;2023-08-07T02:43:02;2.90;;;2.17;;
81106;SDS011;70588;53.172;8.620;2023-08-07T02:45:28;4.60;;;2.53;;
81106;SDS011;70588;53.172;8.620;2023-08-07T02:47:53;3.17;;;2.30;;
81106;SDS011;70588;53.172;8.620;2023-08-07T02:50:19;3.17;;;1.63;;
81106;SDS011;70588;53.172;8.620;2023-08-07T02:52:44;5.78;;;2.58;;
81106;SDS011;70588;53.172;8.620;2023-08-07T02:55:10;2.90;;;2.28;;
81106;SDS011;70588;53.172;8.620;2023-08-07T02:57:35;3.10;;;2.30;;
81106;SDS011;70588;53.172;8.620;2023-08-07T03:00:00;3.38;;;2.25;;
81106;SDS011;70588;53.172;8.620;2023-08-07T03:02:26;2.97;;;2.17;;
81106;SDS011;70588;53.172;8.620;2023-08-07T03:04:51;4.68;;;2.50;;
81106;SDS011;70588;53.172;8.620;2023-08-07T03:07:16;3.72;;;2.38;;
81106;SDS011;70588;53.172;8.620;2023-08-07T03:09:44;4.35;;;2.55;;
81106;SDS011;70588;53.172;8.620;2023-08-07T03:12:11;4.85;;;2.00;;
81106;SDS011;70588;53.172;8.620;2023-08-07T03:14:37;4.32;;;2.30;;
81106;SDS011;70588;53.172;8.620;2023-08-07T03:17:02;3.45;;;2.45;;
81106;SDS011;70588;53.172;8.620;2023-08-07T03:19:27;4.07;;;1.95;;
81106;SDS011;70588;53.172;8.620;2023-08-07T03:21:53;3.03;;;2.10;;
81106;SDS011;70588;53.172;8.620;2023-08-07T03:24:18;2.65;;;2.00;;
81106;SDS011;70588;53.172;8.620;2023-08-07T03:26:44;2.80;;;2.00;;
81106;SDS011;70588;53.172;8.620;2023-08-07T03:29:09;4.25;;;1.88;;
81106;SDS011;70588;53.172;8.620;2023-08-07T03:31:34;2.67;;;1.83;;
81106;SDS011;70588;53.172;8.620;2023-08-07T03:34:01;4.20;;;2.30;;
81106;SDS011;70588;53.172;8.620;2023-08-07T03:36:26;3.40;;;1.63;;
81106;SDS011;70588;53.172;8.620;2023-08-07T03:38:52;2.27;;;1.40;;
81106;SDS011;70588;53.172;8.620;2023-08-07T03:41:17;2.77;;;1.43;;
81106;SDS011;70588;53.172;8.620;2023-08-07T03:43:42;2.93;;;1.50;;
81106;SDS011;70588;53.172;8.620;2023-08-07T03:46:08;1.48;;;1.33;;
81106;SDS011;70588;53.172;8.620;2023-08-07T03:48:33;2.45;;;1.30;;
81106;SDS011;70588;53.172;8.620;2023-08-07T03:51:05;1.38;;;1.17;;
81106;SDS011;70588;53.172;8.620;2023-08-07T03:53:33;2.80;;;1.33;;
81106;SDS011;70588;53.172;8.620;2023-08-07T03:55:58;1.38;;;1.00;;
81106;SDS011;70588;53.172;8.620;2023-08-07T03:58:24;2.53;;;1.30;;
81106;SDS011;70588;53.172;8.620;2023-08-07T04:00:50;1.80;;;1.00;;
81106;SDS011;70588;53.172;8.620;2023-08-07T04:03:16;2.20;;;0.98;;
81106;SDS011;70588;53.172;8.620;2023-08-07T04:05:42;2.70;;;1.10;;
81106;SDS011;70588;53.172;8.620;2023-08-07T04:08:07;3.35;;;1.20;;
81106;SDS011;70588;53.172;8.620;2023-08-07T04:10:32;2.58;;;1.00;;
81106;SDS011;70588;53.172;8.620;2023-08-07T04:12:58;1.23;;;0.90;;
81106;SDS011;70588;53.172;8.620;2023-08-07T04:15:23;1.83;;;1.17;;
81106;SDS011;70588;53.172;8.620;2023-08-07T04:17:48;3.00;;;1.30;;
81106;SDS011;70588;53.172;8.620;2023-08-07T04:20:14;1.60;;;1.07;;
81106;SDS011;70588;53.172;8.620;2023-08-07T04:22:39;1.92;;;1.00;;
81106;SDS011;70588;53.172;8.620;2023-08-07T04:25:05;1.52;;;1.10;;
81106;SDS011;70588;53.172;8.620;2023-08-07T04:27:31;0.90;;;0.85;;
81106;SDS011;70588;53.172;8.620;2023-08-07T04:29:56;1.00;;;0.90;;
81106;SDS011;70588;53.172;8.620;2023-08-07T04:32:22;2.67;;;1.10;;
81106;SDS011;70588;53.172;8.620;2023-08-07T04:34:48;1.50;;;1.08;;
81106;SDS011;70588;53.172;8.620;2023-08-07T04:37:13;1.60;;;1.15;;
81106;SDS011;70588;53.172;8.620;2023-08-07T04:39:39;2.03;;;1.08;;
81106;SDS011;70588;53.172;8.620;2023-08-07T04:42:04;2.00;;;0.67;;
81106;SDS011;70588;53.172;8.620;2023-08-07T04:44:30;0.60;;;0.60;;
81106;SDS011;70588;53.172;8.620;2023-08-07T04:46:55;1.30;;;0.80;;
81106;SDS011;70588;53.172;8.620;2023-08-07T04:49:20;1.88;;;0.70;;
81106;SDS011;70588;53.172;8.620;2023-08-07T04:51:46;1.97;;;0.80;;
81106;SDS011;70588;53.172;8.620;2023-08-07T04:54:11;1.17;;;0.90;;
81106;SDS011;70588;53.172;8.620;2023-08-07T04:56:37;1.77;;;0.90;;
81106;SDS011;70588;53.172;8.620;2023-08-07T04:59:02;3.13;;;1.27;;
81106;SDS011;70588;53.172;8.620;2023-08-07T05:01:28;1.33;;;0.95;;
81106;SDS011;70588;53.172;8.620;2023-08-07T05:03:53;4.25;;;0.90;;
81106;SDS011;70588;53.172;8.620;2023-08-07T05:06:18;3.60;;;0.93;;
81106;SDS011;70588;53.172;8.620;2023-08-07T05:08:44;1.92;;;1.13;;
81106;SDS011;70588;53.172;8.620;2023-08-07T05:11:09;3.30;;;0.85;;
81106;SDS011;70588;53.172;8.620;2023-08-07T05:13:35;2.50;;;0.90;;
81106;SDS011;70588;53.172;8.620;2023-08-07T05:16:00;2.30;;;1.08;;
81106;SDS011;70588;53.172;8.620;2023-08-07T05:18:26;2.35;;;1.05;;
81106;SDS011;70588;53.172;8.620;2023-08-07T05:20:51;1.08;;;0.98;;
81106;SDS011;70588;53.172;8.620;2023-08-07T05:23:16;1.98;;;1.08;;
81106;SDS011;70588;53.172;8.620;2023-08-07T05:25:44;1.92;;;1.02;;
81106;SDS011;70588;53.172;8.620;2023-08-07T05:28:10;2.25;;;1.20;;
81106;SDS011;70588;53.172;8.620;2023-08-07T05:30:36;2.03;;;0.80;;
81106;SDS011;70588;53.172;8.620;2023-08-07T05:33:01;2.47;;;1.05;;
81106;SDS011;70588;53.172;8.620;2023-08-07T05:35:26;3.47;;;1.20;;
81106;SDS011;70588;53.172;8.620;2023-08-07T05:37:52;2.90;;;1.40;;
81106;SDS011;70588;53.172;8.620;2023-08-07T05:40:17;4.32;;;1.10;;
81106;SDS011;70588;53.172;8.620;2023-08-07T05:42:43;4.13;;;1.30;;
81106;SDS011;70588;53.172;8.620;2023-08-07T05:45:09;2.60;;;1.00;;
81106;SDS011;70588;53.172;8.620;2023-08-07T05:47:35;1.88;;;0.75;;
81106;SDS011;70588;53.172;8.620;2023-08-07T05:50:01;1.40;;;1.30;;
81106;SDS011;70588;53.172;8.620;2023-08-07T05:52:26;1.45;;;1.00;;
81106;SDS011;70588;53.172;8.620;2023-08-07T05:54:52;3.47;;;1.30;;
81106;SDS011;70588;53.172;8.620;2023-08-07T05:57:17;2.60;;;1.00;;
81106;SDS011;70588;53.172;8.620;2023-08-07T05:59:43;1.80;;;1.15;;
81106;SDS011;70588;53.172;8.620;2023-08-07T06:02:08;2.25;;;1.25;;
81106;SDS011;70588;53.172;8.620;2023-08-07T06:04:36;4.47;;;1.20;;
81106;SDS011;70588;53.172;8.620;2023-08-07T06:07:01;4.28;;;1.17;;
81106;SDS011;70588;53.172;8.620;2023-08-07T06:09:26;1.85;;;0.82;;
81106;SDS011;70588;53.172;8.620;2023-08-07T06:11:52;2.60;;;1.30;;
81106;SDS011;70588;53.172;8.620;2023-08-07T06:14:18;4.28;;;1.42;;
81106;SDS011;70588;53.172;8.620;2023-08-07T06:16:43;4.70;;;1.30;;
81106;SDS011;70588;53.172;8.620;2023-08-07T06:19:08;1.40;;;1.00;;
81106;SDS011;70588;53.172;8.620;2023-08-07T06:21:34;1.95;;;0.90;;
81106;SDS011;70588;53.172;8.620;2023-08-07T06:23:59;1.90;;;1.13;;
81106;SDS011;70588;53.172;8.620;2023-08-07T06:26:24;2.00;;;0.90;;
81106;SDS011;70588;53.172;8.620;2023-08-07T06:28:50;3.13;;;1.20;;
81106;SDS011;70588;53.172;8.620;2023-08-07T06:31:15;2.43;;;0.80;;
81106;SDS011;70588;53.172;8.620;2023-08-07T06:33:41;1.10;;;0.82;;
81106;SDS011;70588;53.172;8.620;2023-08-07T06:36:07;4.10;;;1.50;;
81106;SDS011;70588;53.172;8.620;2023-08-07T06:38:36;4.90;;;1.38;;
81106;SDS011;70588;53.172;8.620;2023-08-07T06:41:02;1.63;;;1.10;;
81106;SDS011;70588;53.172;8.620;2023-08-07T06:43:27;5.88;;;1.73;;
81106;SDS011;70588;53.172;8.620;2023-08-07T06:45:54;3.30;;;1.50;;
81106;SDS011;70588;53.172;8.620;2023-08-07T06:48:20;3.28;;;1.00;;
81106;SDS011;70588;53.172;8.620;2023-08-07T06:50:49;1.90;;;1.27;;
81106;SDS011;70588;53.172;8.620;2023-08-07T06:53:15;5.35;;;1.45;;
81106;SDS011;70588;53.172;8.620;2023-08-07T06:55:41;4.57;;;1.85;;
81106;SDS011;70588;53.172;8.620;2023-08-07T06:58:06;3.10;;;1.27;;
81106;SDS011;70588;53.172;8.620;2023-08-07T07:00:33;4.03;;;1.20;;
81106;SDS011;70588;53.172;8.620;2023-08-07T07:03:00;2.90;;;1.00;;
81106;SDS011;70588;53.172;8.620;2023-08-07T07:05:26;4.65;;;1.75;;
81106;SDS011;70588;53.172;8.620;2023-08-07T07:07:51;4.72;;;1.70;;
81106;SDS011;70588;53.172;8.620;2023-08-07T07:10:17;4.43;;;1.70;;
81106;SDS011;70588;53.172;8.620;2023-08-07T07:12:42;5.93;;;1.98;;
81106;SDS011;70588;53.172;8.620;2023-08-07T07:15:08;3.75;;;1.52;;
81106;SDS011;70588;53.172;8.620;2023-08-07T07:17:34;3.22;;;1.42;;
81106;SDS011;70588;53.172;8.620;2023-08-07T07:19:59;4.65;;;1.60;;
81106;SDS011;70588;53.172;8.620;2023-08-07T07:22:25;6.25;;;2.05;;
81106;SDS011;70588;53.172;8.620;2023-08-07T07:24:50;4.25;;;1.67;;
81106;SDS011;70588;53.172;8.620;2023-08-07T07:27:16;4.32;;;1.80;;
81106;SDS011;70588;53.172;8.620;2023-08-07T07:29:41;5.68;;;1.90;;
81106;SDS011;70588;53.172;8.620;2023-08-07T07:32:07;3.47;;;1.83;;
81106;SDS011;70588;53.172;8.620;2023-08-07T07:34:32;4.55;;;1.90;;
81106;SDS011;70588;53.172;8.620;2023-08-07T07:36:58;4.00;;;1.50;;
81106;SDS011;70588;53.172;8.620;2023-08-07T07:39:23;6.47;;;1.85;;
81106;SDS011;70588;53.172;8.620;2023-08-07T07:41:49;5.75;;;1.80;;
81106;SDS011;70588;53.172;8.620;2023-08-07T07:44:14;7.93;;;2.28;;
81106;SDS011;70588;53.172;8.620;2023-08-07T07:46:40;3.67;;;1.80;;
81106;SDS011;70588;53.172;8.620;2023-08-07T07:49:05;5.20;;;2.45;;
81106;SDS011;70588;53.172;8.620;2023-08-07T07:51:31;5.75;;;2.00;;
81106;SDS011;70588;53.172;8.620;2023-08-07T07:53:57;5.80;;;2.53;;
81106;SDS011;70588;53.172;8.620;2023-08-07T07:56:25;6.43;;;2.00;;
81106;SDS011;70588;53.172;8.620;2023-08-07T07:58:50;6.78;;;2.25;;
81106;SDS011;70588;53.172;8.620;2023-08-07T08:01:16;8.88;;;2.38;;
81106;SDS011;70588;53.172;8.620;2023-08-07T08:03:43;8.18;;;2.67;;
81106;SDS011;70588;53.172;8.620;2023-08-07T08:06:09;4.22;;;2.28;;
81106;SDS011;70588;53.172;8.620;2023-08-07T08:08:37;7.35;;;2.45;;
81106;SDS011;70588;53.172;8.620;2023-08-07T08:11:02;4.00;;;1.38;;
81106;SDS011;70588;53.172;8.620;2023-08-07T08:13:28;2.88;;;1.48;;
81106;SDS011;70588;53.172;8.620;2023-08-07T08:15:53;5.88;;;1.88;;
81106;SDS011;70588;53.172;8.620;2023-08-07T08:18:19;8.82;;;2.03;;
81106;SDS011;70588;53.172;8.620;2023-08-07T08:20:44;7.80;;;1.90;;
81106;SDS011;70588;53.172;8.620;2023-08-07T08:23:09;5.33;;;2.27;;
81106;SDS011;70588;53.172;8.620;2023-08-07T08:25:35;6.73;;;2.20;;
81106;SDS011;70588;53.172;8.620;2023-08-07T08:28:00;5.10;;;2.28;;
81106;SDS011;70588;53.172;8.620;2023-08-07T08:30:26;6.32;;;1.77;;
81106;SDS011;70588;53.172;8.620;2023-08-07T08:32:51;6.45;;;2.03;;
81106;SDS011;70588;53.172;8.620;2023-08-07T08:35:17;5.40;;;1.70;;
81106;SDS011;70588;53.172;8.620;2023-08-07T08:37:42;7.95;;;2.08;;
81106;SDS011;70588;53.172;8.620;2023-08-07T08:40:08;6.03;;;1.80;;
81106;SDS011;70588;53.172;8.620;2023-08-07T08:42:39;7.63;;;2.00;;
81106;SDS011;70588;53.172;8.620;2023-08-07T08:45:06;5.60;;;2.08;;
81106;SDS011;70588;53.172;8.620;2023-08-07T08:47:36;5.47;;;1.80;;
81106;SDS011;70588;53.172;8.620;2023-08-07T08:50:10;3.65;;;1.85;;
81106;SDS011;70588;53.172;8.620;2023-08-07T08:52:40;3.65;;;1.70;;
81106;SDS011;70588;53.172;8.620;2023-08-07T08:55:07;5.18;;;2.13;;
81106;SDS011;70588;53.172;8.620;2023-08-07T08:57:33;5.20;;;2.25;;
81106;SDS011;70588;53.172;8.620;2023-08-07T09:00:00;7.15;;;2.30;;
81106;SDS011;70588;53.172;8.620;2023-08-07T09:02:29;9.68;;;2.15;;
81106;SDS011;70588;53.172;8.620;2023-08-07T09:04:54;6.13;;;1.67;;
81106;SDS011;70588;53.172;8.620;2023-08-07T09:07:20;4.10;;;1.88;;
81106;SDS011;70588;53.172;8.620;2023-08-07T09:09:47;4.38;;;1.83;;
81106;SDS011;70588;53.172;8.620;2023-08-07T09:12:20;4.35;;;1.63;;
81106;SDS011;70588;53.172;8.620;2023-08-07T09:14:52;6.47;;;1.95;;
81106;SDS011;70588;53.172;8.620;2023-08-07T09:17:22;6.78;;;2.08;;
81106;SDS011;70588;53.172;8.620;2023-08-07T09:19:49;8.80;;;2.00;;
81106;SDS011;70588;53.172;8.620;2023-08-07T09:22:15;3.35;;;1.50;;
81106;SDS011;70588;53.172;8.620;2023-08-07T09:24:40;3.78;;;2.10;;
81106;SDS011;70588;53.172;8.620;2023-08-07T09:27:09;5.63;;;1.70;;
81106;SDS011;70588;53.172;8.620;2023-08-07T09:29:34;5.90;;;1.88;;
81106;SDS011;70588;53.172;8.620;2023-08-07T09:32:07;6.30;;;2.25;;
81106;SDS011;70588;53.172;8.620;2023-08-07T09:34:33;5.22;;;1.95;;
81106;SDS011;70588;53.172;8.620;2023-08-07T09:36:58;4.90;;;1.80;;
81106;SDS011;70588;53.172;8.620;2023-08-07T09:39:24;5.95;;;2.00;;
81106;SDS011;70588;53.172;8.620;2023-08-07T09:41:53;6.18;;;2.00;;
81106;SDS011;70588;53.172;8.620;2023-08-07T09:44:18;3.38;;;1.70;;
81106;SDS011;70588;53.172;8.620;2023-08-07T09:46:44;3.85;;;1.52;;
81106;SDS011;70588;53.172;8.620;2023-08-07T09:49:09;3.63;;;2.20;;
81106;SDS011;70588;53.172;8.620;2023-08-07T09:51:44;5.30;;;1.83;;
81106;SDS011;70588;53.172;8.620;2023-08-07T09:54:11;4.00;;;1.83;;
81106;SDS011;70588;53.172;8.620;2023-08-07T09:56:37;5.13;;;2.13;;
81106;SDS011;70588;53.172;8.620;2023-08-07T09:59:04;4.63;;;1.75;;
81106;SDS011;70588;53.172;8.620;2023-08-07T10:01:30;7.05;;;2.20;;
81106;SDS011;70588;53.172;8.620;2023-08-07T10:03:56;3.72;;;2.03;;
81106;SDS011;70588;53.172;8.620;2023-08-07T10:06:22;3.90;;;1.65;;
81106;SDS011;70588;53.172;8.620;2023-08-07T10:08:47;3.70;;;1.80;;
81106;SDS011;70588;53.172;8.620;2023-08-07T10:11:14;3.90;;;1.58;;
81106;SDS011;70588;53.172;8.620;2023-08-07T10:13:40;5.28;;;1.95;;
81106;SDS011;70588;53.172;8.620;2023-08-07T10:16:06;2.88;;;1.70;;
81106;SDS011;70588;53.172;8.620;2023-08-07T10:18:32;4.63;;;1.48;;
81106;SDS011;70588;53.172;8.620;2023-08-07T10:20:59;5.30;;;1.75;;
81106;SDS011;70588;53.172;8.620;2023-08-07T10:23:26;4.05;;;1.90;;
81106;SDS011;70588;53.172;8.620;2023-08-07T10:25:52;8.73;;;1.88;;
81106;SDS011;70588;53.172;8.620;2023-08-07T10:28:19;7.28;;;2.13;;
81106;SDS011;70588;53.172;8.620;2023-08-07T10:30:47;8.23;;;2.13;;
81106;SDS011;70588;53.172;8.620;2023-08-07T10:33:14;3.83;;;1.50;;
81106;SDS011;70588;53.172;8.620;2023-08-07T10:35:46;5.97;;;1.65;;
81106;SDS011;70588;53.172;8.620;2023-08-07T10:38:13;2.90;;;1.42;;
81106;SDS011;70588;53.172;8.620;2023-08-07T10:43:23;4.97;;;1.73;;
81106;SDS011;70588;53.172;8.620;2023-08-07T10:45:50;5.57;;;1.70;;
81106;SDS011;70588;53.172;8.620;2023-08-07T10:48:19;6.38;;;1.63;;
81106;SDS011;70588;53.172;8.620;2023-08-07T10:53:28;3.78;;;1.80;;
81106;SDS011;70588;53.172;8.620;2023-08-07T10:55:54;3.30;;;1.88;;
81106;SDS011;70588;53.172;8.620;2023-08-07T11:00:48;4.40;;;1.65;;
81106;SDS011;70588;53.172;8.620;2023-08-07T11:03:27;3.45;;;1.80;;
81106;SDS011;70588;53.172;8.620;2023-08-07T11:05:53;4.07;;;1.50;;
81106;SDS011;70588;53.172;8.620;2023-08-07T11:08:22;4.53;;;1.80;;
81106;SDS011;70588;53.172;8.620;2023-08-07T11:10:50;3.47;;;1.38;;
81106;SDS011;70588;53.172;8.620;2023-08-07T11:13:17;7.28;;;2.00;;
81106;SDS011;70588;53.172;8.620;2023-08-07T11:15:43;3.40;;;1.85;;
81106;SDS011;70588;53.172;8.620;2023-08-07T11:18:09;5.03;;;1.58;;
81106;SDS011;70588;53.172;8.620;2023-08-07T11:20:35;6.65;;;2.00;;
81106;SDS011;70588;53.172;8.620;2023-08-07T11:23:04;3.70;;;1.80;;
81106;SDS011;70588;53.172;8.620;2023-08-07T11:25:30;3.53;;;1.77;;
81106;SDS011;70588;53.172;8.620;2023-08-07T11:27:56;5.50;;;1.90;;
81106;SDS011;70588;53.172;8.620;2023-08-07T11:30:21;6.25;;;2.15;;
81106;SDS011;70588;53.172;8.620;2023-08-07T11:32:46;3.50;;;1.90;;
81106;SDS011;70588;53.172;8.620;2023-08-07T11:35:12;5.93;;;2.10;;
81106;SDS011;70588;53.172;8.620;2023-08-07T11:37:44;3.70;;;1.85;;
81106;SDS011;70588;53.172;8.620;2023-08-07T11:40:11;6.72;;;1.90;;
81106;SDS011;70588;53.172;8.620;2023-08-07T11:42:36;5.65;;;1.75;;
81106;SDS011;70588;53.172;8.620;2023-08-07T11:45:02;4.13;;;1.48;;
81106;SDS011;70588;53.172;8.620;2023-08-07T11:47:28;5.85;;;1.85;;
81106;SDS011;70588;53.172;8.620;2023-08-07T11:49:53;5.03;;;2.10;;
81106;SDS011;70588;53.172;8.620;2023-08-07T11:52:19;3.65;;;1.52;;
81106;SDS011;70588;53.172;8.620;2023-08-07T11:54:48;3.63;;;1.85;;
81106;SDS011;70588;53.172;8.620;2023-08-07T11:57:15;3.65;;;1.55;;
81106;SDS011;70588;53.172;8.620;2023-08-07T11:59:49;3.33;;;1.98;;
81106;SDS011;70588;53.172;8.620;2023-08-07T12:02:15;4.57;;;1.85;;
81106;SDS011;70588;53.172;8.620;2023-08-07T12:04:41;4.05;;;1.60;;
81106;SDS011;70588;53.172;8.620;2023-08-07T12:07:06;5.15;;;1.48;;
81106;SDS011;70588;53.172;8.620;2023-08-07T12:09:35;5.43;;;1.80;;
81106;SDS011;70588;53.172;8.620;2023-08-07T12:12:02;3.42;;;1.58;;
81106;SDS011;70588;53.172;8.620;2023-08-07T12:14:28;4.35;;;1.55;;
81106;SDS011;70588;53.172;8.620;2023-08-07T12:16:54;4.43;;;2.03;;
81106;SDS011;70588;53.172;8.620;2023-08-07T12:19:19;4.88;;;1.80;;
81106;SDS011;70588;53.172;8.620;2023-08-07T12:21:45;2.25;;;1.40;;
81106;SDS011;70588;53.172;8.620;2023-08-07T12:24:10;5.10;;;1.85;;
81106;SDS011;70588;53.172;8.620;2023-08-07T12:26:38;4.25;;;1.83;;
81106;SDS011;70588;53.172;8.620;2023-08-07T12:29:03;3.72;;;1.40;;
81106;SDS011;70588;53.172;8.620;2023-08-07T12:31:29;4.13;;;1.50;;
81106;SDS011;70588;53.172;8.620;2023-08-07T12:33:54;3.70;;;1.40;;
81106;SDS011;70588;53.172;8.620;2023-08-07T12:36:19;4.97;;;2.00;;
81106;SDS011;70588;53.172;8.620;2023-08-07T12:38:45;2.55;;;1.08;;
81106;SDS011;70588;53.172;8.620;2023-08-07T12:41:11;4.13;;;1.10;;
81106;SDS011;70588;53.172;8.620;2023-08-07T12:43:36;3.35;;;1.33;;
81106;SDS011;70588;53.172;8.620;2023-08-07T12:46:01;4.43;;;1.70;;
81106;SDS011;70588;53.172;8.620;2023-08-07T12:48:27;4.18;;;1.45;;
81106;SDS011;70588;53.172;8.620;2023-08-07T12:50:53;3.63;;;1.02;;
81106;SDS011;70588;53.172;8.620;2023-08-07T12:53:19;3.08;;;1.42;;
81106;SDS011;70588;53.172;8.620;2023-08-07T12:55:44;3.67;;;1.60;;
81106;SDS011;70588;53.172;8.620;2023-08-07T12:58:10;4.93;;;1.63;;
81106;SDS011;70588;53.172;8.620;2023-08-07T13:00:36;4.65;;;1.50;;
81106;SDS011;70588;53.172;8.620;2023-08-07T13:03:01;3.47;;;1.40;;
81106;SDS011;70588;53.172;8.620;2023-08-07T13:05:27;5.97;;;1.65;;
81106;SDS011;70588;53.172;8.620;2023-08-07T13:07:55;2.45;;;1.25;;
81106;SDS011;70588;53.172;8.620;2023-08-07T13:10:23;3.38;;;1.50;;
81106;SDS011;70588;53.172;8.620;2023-08-07T13:12:49;3.63;;;1.50;;
81106;SDS011;70588;53.172;8.620;2023-08-07T13:15:15;3.00;;;1.70;;
81106;SDS011;70588;53.172;8.620;2023-08-07T13:17:41;5.10;;;1.58;;
81106;SDS011;70588;53.172;8.620;2023-08-07T13:20:08;6.95;;;1.80;;
81106;SDS011;70588;53.172;8.620;2023-08-07T13:22:34;3.40;;;1.85;;
81106;SDS011;70588;53.172;8.620;2023-08-07T13:25:01;3.47;;;1.50;;
81106;SDS011;70588;53.172;8.620;2023-08-07T13:27:28;9.20;;;2.70;;
81106;SDS011;70588;53.172;8.620;2023-08-07T13:29:54;7.22;;;1.95;;
81106;SDS011;70588;53.172;8.620;2023-08-07T13:32:19;6.18;;;2.13;;
81106;SDS011;70588;53.172;8.620;2023-08-07T13:34:45;5.55;;;1.67;;
81106;SDS011;70588;53.172;8.620;2023-08-07T13:37:11;2.70;;;1.50;;
81106;SDS011;70588;53.172;8.620;2023-08-07T13:39:36;3.38;;;1.50;;
81106;SDS011;70588;53.172;8.620;2023-08-07T13:42:02;3.85;;;1.33;;
81106;SDS011;70588;53.172;8.620;2023-08-07T13:44:27;3.10;;;1.58;;
81106;SDS011;70588;53.172;8.620;2023-08-07T13:46:54;3.35;;;1.52;;
81106;SDS011;70588;53.172;8.620;2023-08-07T13:49:19;4.25;;;1.73;;
81106;SDS011;70588;53.172;8.620;2023-08-07T13:51:46;4.88;;;1.90;;
81106;SDS011;70588;53.172;8.620;2023-08-07T13:54:12;3.88;;;1.40;;
81106;SDS011;70588;53.172;8.620;2023-08-07T13:56:37;2.38;;;1.42;;
81106;SDS011;70588;53.172;8.620;2023-08-07T13:59:03;4.15;;;1.17;;
81106;SDS011;70588;53.172;8.620;2023-08-07T14:01:28;4.43;;;1.70;;
81106;SDS011;70588;53.172;8.620;2023-08-07T14:03:54;3.67;;;1.52;;
81106;SDS011;70588;53.172;8.620;2023-08-07T14:06:19;3.78;;;1.33;;
81106;SDS011;70588;53.172;8.620;2023-08-07T14:08:45;3.00;;;1.35;;
81106;SDS011;70588;53.172;8.620;2023-08-07T14:11:11;3.28;;;1.65;;
81106;SDS011;70588;53.172;8.620;2023-08-07T14:13:39;6.65;;;1.92;;
81106;SDS011;70588;53.172;8.620;2023-08-07T14:16:05;3.60;;;1.40;;
81106;SDS011;70588;53.172;8.620;2023-08-07T14:18:31;1.60;;;1.23;;
81106;SDS011;70588;53.172;8.620;2023-08-07T14:20:56;4.60;;;1.35;;
81106;SDS011;70588;53.172;8.620;2023-08-07T14:23:21;4.25;;;1.23;;
81106;SDS011;70588;53.172;8.620;2023-08-07T14:25:47;4.50;;;1.40;;
81106;SDS011;70588;53.172;8.620;2023-08-07T14:28:16;3.97;;;1.48;;
81106;SDS011;70588;53.172;8.620;2023-08-07T14:30:42;2.08;;;1.48;;
81106;SDS011;70588;53.172;8.620;2023-08-07T14:33:07;2.22;;;1.02;;
81106;SDS011;70588;53.172;8.620;2023-08-07T14:35:32;1.45;;;1.20;;
81106;SDS011;70588;53.172;8.620;2023-08-07T14:37:58;2.47;;;1.47;;
81106;SDS011;70588;53.172;8.620;2023-08-07T14:40:23;4.85;;;1.30;;
81106;SDS011;70588;53.172;8.620;2023-08-07T14:42:48;2.33;;;1.25;;
81106;SDS011;70588;53.172;8.620;2023-08-07T14:45:14;4.00;;;1.67;;
81106;SDS011;70588;53.172;8.620;2023-08-07T14:47:40;2.67;;;1.02;;
81106;SDS011;70588;53.172;8.620;2023-08-07T14:50:06;4.32;;;1.95;;
81106;SDS011;70588;53.172;8.620;2023-08-07T14:52:31;2.05;;;1.25;;
81106;SDS011;70588;53.172;8.620;2023-08-07T14:54:57;2.05;;;1.20;;
81106;SDS011;70588;53.172;8.620;2023-08-07T14:57:23;4.43;;;1.60;;
81106;SDS011;70588;53.172;8.620;2023-08-07T14:59:49;4.20;;;1.55;;